sensor_id;sensor_type;location;lat;lon;timestamp;P1;durP1;ratioP1;P2;durP2;ratioP2
56401;SDS011;42299;35.160;26.100;2023-05-10T00:00:32;16.60;;;12.70;;
56401;SDS011;42299;35.160;26.100;2023-05-10T00:01:53;17.02;;;12.65;;
56401;SDS011;42299;35.160;26.100;2023-05-10T00:03:18;17.65;;;11.82;;
56401;SDS011;42299;35.160;26.100;2023-05-10T00:04:39;17.38;;;12.07;;
56401;SDS011;42299;35.160;26.100;2023-05-10T00:06:01;16.58;;;12.77;;
56401;SDS011;42299;35.160;26.100;2023-05-10T00:07:24;20.30;;;13.07;;
56401;SDS011;42299;35.160;26.100;2023-05-10T00:08:45;18.27;;;12.65;;
56401;SDS011;42299;35.160;26.100;2023-05-10T00:10:08;18.38;;;13.60;;
56401;SDS011;42299;35.160;26.100;2023-05-10T00:12:51;20.55;;;13.77;;
56401;SDS011;42299;35.160;26.100;2023-05-10T00:14:13;17.60;;;13.18;;
56401;SDS011;42299;35.160;26.100;2023-05-10T00:15:35;18.27;;;12.40;;
56401;SDS011;42299;35.160;26.100;2023-05-10T00:16:56;17.42;;;11.45;;
56401;SDS011;42299;35.160;26.100;2023-05-10T00:18:20;20.45;;;13.20;;
56401;SDS011;42299;35.160;26.100;2023-05-10T00:19:41;15.55;;;12.40;;
56401;SDS011;42299;35.160;26.100;2023-05-10T00:21:04;16.75;;;12.88;;
56401;SDS011;42299;35.160;26.100;2023-05-10T00:22:27;16.48;;;12.65;;
56401;SDS011;42299;35.160;26.100;2023-05-10T00:23:49;17.70;;;12.75;;
56401;SDS011;42299;35.160;26.100;2023-05-10T00:25:12;19.50;;;13.77;;
56401;SDS011;42299;35.160;26.100;2023-05-10T00:26:34;17.73;;;12.93;;
56401;SDS011;42299;35.160;26.100;2023-05-10T00:27:55;21.38;;;15.10;;
56401;SDS011;42299;35.160;26.100;2023-05-10T00:29:18;20.20;;;14.68;;
56401;SDS011;42299;35.160;26.100;2023-05-10T00:30:40;17.20;;;14.45;;
56401;SDS011;42299;35.160;26.100;2023-05-10T00:32:02;21.23;;;14.70;;
56401;SDS011;42299;35.160;26.100;2023-05-10T00:33:25;19.58;;;14.02;;
56401;SDS011;42299;35.160;26.100;2023-05-10T00:34:47;20.35;;;14.35;;
56401;SDS011;42299;35.160;26.100;2023-05-10T00:36:09;21.90;;;14.73;;
56401;SDS011;42299;35.160;26.100;2023-05-10T00:37:31;18.60;;;13.80;;
56401;SDS011;42299;35.160;26.100;2023-05-10T00:38:54;19.88;;;13.45;;
56401;SDS011;42299;35.160;26.100;2023-05-10T00:40:17;18.73;;;13.32;;
56401;SDS011;42299;35.160;26.100;2023-05-10T00:41:43;18.67;;;14.43;;
56401;SDS011;42299;35.160;26.100;2023-05-10T00:43:05;22.00;;;15.52;;
56401;SDS011;42299;35.160;26.100;2023-05-10T00:44:27;21.15;;;14.45;;
56401;SDS011;42299;35.160;26.100;2023-05-10T00:45:51;24.38;;;14.93;;
56401;SDS011;42299;35.160;26.100;2023-05-10T00:47:13;21.80;;;15.18;;
56401;SDS011;42299;35.160;26.100;2023-05-10T00:48:37;20.90;;;15.20;;
56401;SDS011;42299;35.160;26.100;2023-05-10T00:50:00;20.67;;;14.45;;
56401;SDS011;42299;35.160;26.100;2023-05-10T00:51:22;22.73;;;15.45;;
56401;SDS011;42299;35.160;26.100;2023-05-10T00:52:44;22.52;;;14.77;;
56401;SDS011;42299;35.160;26.100;2023-05-10T00:54:06;20.55;;;13.82;;
56401;SDS011;42299;35.160;26.100;2023-05-10T00:55:29;18.83;;;14.05;;
56401;SDS011;42299;35.160;26.100;2023-05-10T00:56:51;22.60;;;15.13;;
56401;SDS011;42299;35.160;26.100;2023-05-10T00:58:13;19.65;;;14.30;;
56401;SDS011;42299;35.160;26.100;2023-05-10T00:59:36;23.98;;;15.23;;
56401;SDS011;42299;35.160;26.100;2023-05-10T01:00:58;22.75;;;14.68;;
56401;SDS011;42299;35.160;26.100;2023-05-10T01:02:22;24.70;;;15.57;;
56401;SDS011;42299;35.160;26.100;2023-05-10T01:03:45;21.17;;;15.05;;
56401;SDS011;42299;35.160;26.100;2023-05-10T01:05:07;23.33;;;14.80;;
56401;SDS011;42299;35.160;26.100;2023-05-10T01:06:30;19.02;;;14.90;;
56401;SDS011;42299;35.160;26.100;2023-05-10T01:07:51;18.58;;;14.93;;
56401;SDS011;42299;35.160;26.100;2023-05-10T01:09:13;21.02;;;13.85;;
56401;SDS011;42299;35.160;26.100;2023-05-10T01:10:34;21.33;;;15.07;;
56401;SDS011;42299;35.160;26.100;2023-05-10T01:11:57;18.77;;;13.23;;
56401;SDS011;42299;35.160;26.100;2023-05-10T01:13:25;18.88;;;13.73;;
56401;SDS011;42299;35.160;26.100;2023-05-10T01:14:54;20.95;;;13.80;;
56401;SDS011;42299;35.160;26.100;2023-05-10T01:16:17;18.88;;;13.32;;
56401;SDS011;42299;35.160;26.100;2023-05-10T01:17:42;20.58;;;13.70;;
56401;SDS011;42299;35.160;26.100;2023-05-10T01:19:06;21.45;;;15.00;;
56401;SDS011;42299;35.160;26.100;2023-05-10T01:20:40;19.08;;;14.13;;
56401;SDS011;42299;35.160;26.100;2023-05-10T01:22:12;20.50;;;13.73;;
56401;SDS011;42299;35.160;26.100;2023-05-10T01:25:58;22.55;;;16.00;;
56401;SDS011;42299;35.160;26.100;2023-05-10T01:29:57;23.45;;;14.85;;
56401;SDS011;42299;35.160;26.100;2023-05-10T01:31:30;21.77;;;14.38;;
56401;SDS011;42299;35.160;26.100;2023-05-10T01:33:07;22.48;;;15.98;;
56401;SDS011;42299;35.160;26.100;2023-05-10T01:34:35;21.05;;;14.57;;
56401;SDS011;42299;35.160;26.100;2023-05-10T01:36:05;21.88;;;15.73;;
56401;SDS011;42299;35.160;26.100;2023-05-10T01:37:33;27.15;;;16.05;;
56401;SDS011;42299;35.160;26.100;2023-05-10T01:39:05;24.45;;;15.30;;
56401;SDS011;42299;35.160;26.100;2023-05-10T01:40:35;21.92;;;15.13;;
56401;SDS011;42299;35.160;26.100;2023-05-10T01:42:01;22.98;;;15.30;;
56401;SDS011;42299;35.160;26.100;2023-05-10T01:43:30;24.95;;;15.43;;
56401;SDS011;42299;35.160;26.100;2023-05-10T01:44:56;24.60;;;16.15;;
56401;SDS011;42299;35.160;26.100;2023-05-10T01:46:24;23.60;;;15.50;;
56401;SDS011;42299;35.160;26.100;2023-05-10T01:47:53;19.70;;;15.02;;
56401;SDS011;42299;35.160;26.100;2023-05-10T01:49:23;21.60;;;15.32;;
56401;SDS011;42299;35.160;26.100;2023-05-10T01:50:46;21.75;;;13.98;;
56401;SDS011;42299;35.160;26.100;2023-05-10T01:52:14;20.63;;;14.38;;
56401;SDS011;42299;35.160;26.100;2023-05-10T01:53:40;20.85;;;14.32;;
56401;SDS011;42299;35.160;26.100;2023-05-10T01:55:05;19.35;;;15.75;;
56401;SDS011;42299;35.160;26.100;2023-05-10T01:56:30;18.60;;;14.50;;
56401;SDS011;42299;35.160;26.100;2023-05-10T01:57:58;21.50;;;15.35;;
56401;SDS011;42299;35.160;26.100;2023-05-10T01:59:26;24.38;;;16.58;;
56401;SDS011;42299;35.160;26.100;2023-05-10T02:00:51;21.55;;;15.27;;
56401;SDS011;42299;35.160;26.100;2023-05-10T02:02:14;22.23;;;16.23;;
56401;SDS011;42299;35.160;26.100;2023-05-10T02:03:38;23.98;;;17.00;;
56401;SDS011;42299;35.160;26.100;2023-05-10T02:05:06;24.02;;;16.10;;
56401;SDS011;42299;35.160;26.100;2023-05-10T02:06:28;23.73;;;17.15;;
56401;SDS011;42299;35.160;26.100;2023-05-10T02:07:54;25.25;;;17.10;;
56401;SDS011;42299;35.160;26.100;2023-05-10T02:09:16;22.70;;;15.65;;
56401;SDS011;42299;35.160;26.100;2023-05-10T02:10:40;24.50;;;15.20;;
56401;SDS011;42299;35.160;26.100;2023-05-10T02:12:04;21.65;;;14.25;;
56401;SDS011;42299;35.160;26.100;2023-05-10T02:13:27;20.98;;;14.90;;
56401;SDS011;42299;35.160;26.100;2023-05-10T02:14:51;22.85;;;14.85;;
56401;SDS011;42299;35.160;26.100;2023-05-10T02:16:15;21.55;;;14.13;;
56401;SDS011;42299;35.160;26.100;2023-05-10T02:17:40;23.10;;;14.88;;
56401;SDS011;42299;35.160;26.100;2023-05-10T02:19:03;23.92;;;15.18;;
56401;SDS011;42299;35.160;26.100;2023-05-10T02:20:28;20.98;;;14.85;;
56401;SDS011;42299;35.160;26.100;2023-05-10T02:21:52;24.27;;;15.00;;
56401;SDS011;42299;35.160;26.100;2023-05-10T02:23:17;20.77;;;15.02;;
56401;SDS011;42299;35.160;26.100;2023-05-10T02:24:41;20.77;;;15.32;;
56401;SDS011;42299;35.160;26.100;2023-05-10T02:26:04;21.85;;;15.27;;
56401;SDS011;42299;35.160;26.100;2023-05-10T02:27:28;23.67;;;15.98;;
56401;SDS011;42299;35.160;26.100;2023-05-10T02:28:51;21.67;;;16.17;;
56401;SDS011;42299;35.160;26.100;2023-05-10T02:30:15;24.13;;;15.95;;
56401;SDS011;42299;35.160;26.100;2023-05-10T02:31:39;26.63;;;15.73;;
56401;SDS011;42299;35.160;26.100;2023-05-10T02:33:03;20.55;;;15.63;;
56401;SDS011;42299;35.160;26.100;2023-05-10T02:34:26;22.95;;;15.35;;
56401;SDS011;42299;35.160;26.100;2023-05-10T02:35:50;20.50;;;15.00;;
56401;SDS011;42299;35.160;26.100;2023-05-10T02:37:14;21.55;;;15.23;;
56401;SDS011;42299;35.160;26.100;2023-05-10T02:38:37;21.85;;;15.05;;
56401;SDS011;42299;35.160;26.100;2023-05-10T02:40:01;20.08;;;14.05;;
56401;SDS011;42299;35.160;26.100;2023-05-10T02:41:24;17.63;;;14.25;;
56401;SDS011;42299;35.160;26.100;2023-05-10T02:42:48;26.00;;;16.08;;
56401;SDS011;42299;35.160;26.100;2023-05-10T02:44:12;24.33;;;15.60;;
56401;SDS011;42299;35.160;26.100;2023-05-10T02:45:37;20.75;;;15.60;;
56401;SDS011;42299;35.160;26.100;2023-05-10T02:47:00;18.88;;;15.00;;
56401;SDS011;42299;35.160;26.100;2023-05-10T02:48:23;23.23;;;15.68;;
56401;SDS011;42299;35.160;26.100;2023-05-10T02:49:45;25.25;;;15.95;;
56401;SDS011;42299;35.160;26.100;2023-05-10T02:51:10;22.02;;;16.08;;
56401;SDS011;42299;35.160;26.100;2023-05-10T02:52:39;20.95;;;15.88;;
56401;SDS011;42299;35.160;26.100;2023-05-10T02:54:06;21.27;;;14.98;;
56401;SDS011;42299;35.160;26.100;2023-05-10T02:55:34;23.38;;;15.10;;
56401;SDS011;42299;35.160;26.100;2023-05-10T02:56:58;17.77;;;13.93;;
56401;SDS011;42299;35.160;26.100;2023-05-10T02:58:23;18.23;;;13.75;;
56401;SDS011;42299;35.160;26.100;2023-05-10T02:59:44;21.08;;;14.82;;
56401;SDS011;42299;35.160;26.100;2023-05-10T03:01:07;22.38;;;16.05;;
56401;SDS011;42299;35.160;26.100;2023-05-10T03:02:30;20.05;;;14.27;;
56401;SDS011;42299;35.160;26.100;2023-05-10T03:03:51;18.58;;;14.90;;
56401;SDS011;42299;35.160;26.100;2023-05-10T03:05:14;21.27;;;15.50;;
56401;SDS011;42299;35.160;26.100;2023-05-10T03:06:36;19.88;;;14.52;;
56401;SDS011;42299;35.160;26.100;2023-05-10T03:07:59;20.15;;;15.13;;
56401;SDS011;42299;35.160;26.100;2023-05-10T03:09:24;23.05;;;14.98;;
56401;SDS011;42299;35.160;26.100;2023-05-10T03:10:49;19.92;;;14.68;;
56401;SDS011;42299;35.160;26.100;2023-05-10T03:12:18;22.80;;;15.55;;
56401;SDS011;42299;35.160;26.100;2023-05-10T03:13:51;19.95;;;14.77;;
56401;SDS011;42299;35.160;26.100;2023-05-10T03:15:27;21.75;;;15.70;;
56401;SDS011;42299;35.160;26.100;2023-05-10T03:16:57;28.50;;;17.02;;
56401;SDS011;42299;35.160;26.100;2023-05-10T03:18:28;25.60;;;15.77;;
56401;SDS011;42299;35.160;26.100;2023-05-10T03:19:57;21.90;;;15.88;;
56401;SDS011;42299;35.160;26.100;2023-05-10T03:21:25;22.95;;;15.85;;
56401;SDS011;42299;35.160;26.100;2023-05-10T03:22:53;22.70;;;16.90;;
56401;SDS011;42299;35.160;26.100;2023-05-10T03:24:22;22.85;;;16.20;;
56401;SDS011;42299;35.160;26.100;2023-05-10T03:25:50;25.15;;;18.15;;
56401;SDS011;42299;35.160;26.100;2023-05-10T03:27:14;24.60;;;17.45;;
56401;SDS011;42299;35.160;26.100;2023-05-10T03:28:36;27.33;;;19.15;;
56401;SDS011;42299;35.160;26.100;2023-05-10T03:29:59;25.13;;;17.83;;
56401;SDS011;42299;35.160;26.100;2023-05-10T03:31:24;27.63;;;18.65;;
56401;SDS011;42299;35.160;26.100;2023-05-10T03:32:46;29.98;;;23.02;;
56401;SDS011;42299;35.160;26.100;2023-05-10T03:34:09;31.38;;;26.33;;
56401;SDS011;42299;35.160;26.100;2023-05-10T03:35:32;33.83;;;28.40;;
56401;SDS011;42299;35.160;26.100;2023-05-10T03:36:53;34.42;;;25.25;;
56401;SDS011;42299;35.160;26.100;2023-05-10T03:38:17;32.10;;;26.42;;
56401;SDS011;42299;35.160;26.100;2023-05-10T03:39:40;30.85;;;27.45;;
56401;SDS011;42299;35.160;26.100;2023-05-10T03:41:03;31.50;;;24.05;;
56401;SDS011;42299;35.160;26.100;2023-05-10T03:42:26;30.17;;;25.33;;
56401;SDS011;42299;35.160;26.100;2023-05-10T03:43:49;27.77;;;20.85;;
56401;SDS011;42299;35.160;26.100;2023-05-10T03:45:11;27.27;;;22.67;;
56401;SDS011;42299;35.160;26.100;2023-05-10T03:46:33;28.88;;;22.77;;
56401;SDS011;42299;35.160;26.100;2023-05-10T03:47:57;26.58;;;20.05;;
56401;SDS011;42299;35.160;26.100;2023-05-10T03:50:41;24.85;;;19.17;;
56401;SDS011;42299;35.160;26.100;2023-05-10T03:52:03;25.08;;;18.00;;
56401;SDS011;42299;35.160;26.100;2023-05-10T03:53:27;22.15;;;17.30;;
56401;SDS011;42299;35.160;26.100;2023-05-10T03:54:48;24.55;;;16.42;;
56401;SDS011;42299;35.160;26.100;2023-05-10T03:56:11;21.45;;;16.00;;
56401;SDS011;42299;35.160;26.100;2023-05-10T03:57:33;22.33;;;16.20;;
56401;SDS011;42299;35.160;26.100;2023-05-10T03:58:54;21.90;;;15.82;;
56401;SDS011;42299;35.160;26.100;2023-05-10T04:00:17;22.92;;;17.67;;
56401;SDS011;42299;35.160;26.100;2023-05-10T04:01:41;26.33;;;18.05;;
56401;SDS011;42299;35.160;26.100;2023-05-10T04:03:04;25.15;;;18.30;;
56401;SDS011;42299;35.160;26.100;2023-05-10T04:04:27;25.45;;;17.60;;
56401;SDS011;42299;35.160;26.100;2023-05-10T04:05:48;23.48;;;16.33;;
56401;SDS011;42299;35.160;26.100;2023-05-10T04:07:10;21.13;;;15.77;;
56401;SDS011;42299;35.160;26.100;2023-05-10T04:08:33;26.77;;;16.15;;
56401;SDS011;42299;35.160;26.100;2023-05-10T04:09:56;25.85;;;18.83;;
56401;SDS011;42299;35.160;26.100;2023-05-10T04:11:17;23.65;;;17.38;;
56401;SDS011;42299;35.160;26.100;2023-05-10T04:12:42;25.15;;;17.38;;
56401;SDS011;42299;35.160;26.100;2023-05-10T04:14:03;25.38;;;17.40;;
56401;SDS011;42299;35.160;26.100;2023-05-10T04:15:25;31.35;;;20.17;;
56401;SDS011;42299;35.160;26.100;2023-05-10T04:16:47;28.17;;;19.95;;
56401;SDS011;42299;35.160;26.100;2023-05-10T04:18:09;31.77;;;19.20;;
56401;SDS011;42299;35.160;26.100;2023-05-10T04:19:32;28.75;;;19.08;;
56401;SDS011;42299;35.160;26.100;2023-05-10T04:20:53;23.67;;;18.10;;
56401;SDS011;42299;35.160;26.100;2023-05-10T04:22:15;27.27;;;19.13;;
56401;SDS011;42299;35.160;26.100;2023-05-10T04:23:42;25.77;;;17.23;;
56401;SDS011;42299;35.160;26.100;2023-05-10T04:25:03;25.35;;;17.75;;
56401;SDS011;42299;35.160;26.100;2023-05-10T04:26:27;22.42;;;16.70;;
56401;SDS011;42299;35.160;26.100;2023-05-10T04:27:49;21.38;;;15.52;;
56401;SDS011;42299;35.160;26.100;2023-05-10T04:29:12;18.48;;;15.23;;
56401;SDS011;42299;35.160;26.100;2023-05-10T04:30:33;19.48;;;13.82;;
56401;SDS011;42299;35.160;26.100;2023-05-10T04:31:55;20.00;;;15.18;;
56401;SDS011;42299;35.160;26.100;2023-05-10T04:33:17;22.65;;;16.27;;
56401;SDS011;42299;35.160;26.100;2023-05-10T04:34:39;21.77;;;14.88;;
56401;SDS011;42299;35.160;26.100;2023-05-10T04:36:01;25.15;;;14.77;;
56401;SDS011;42299;35.160;26.100;2023-05-10T04:37:23;22.92;;;15.50;;
56401;SDS011;42299;35.160;26.100;2023-05-10T04:38:47;21.70;;;15.45;;
56401;SDS011;42299;35.160;26.100;2023-05-10T04:40:10;26.02;;;14.95;;
56401;SDS011;42299;35.160;26.100;2023-05-10T04:41:33;26.33;;;15.18;;
56401;SDS011;42299;35.160;26.100;2023-05-10T04:42:55;24.00;;;14.75;;
56401;SDS011;42299;35.160;26.100;2023-05-10T04:44:17;23.95;;;14.23;;
56401;SDS011;42299;35.160;26.100;2023-05-10T04:45:40;22.98;;;15.15;;
56401;SDS011;42299;35.160;26.100;2023-05-10T04:47:01;21.40;;;14.57;;
56401;SDS011;42299;35.160;26.100;2023-05-10T04:48:24;22.17;;;14.52;;
56401;SDS011;42299;35.160;26.100;2023-05-10T04:49:47;25.00;;;15.18;;
56401;SDS011;42299;35.160;26.100;2023-05-10T04:51:09;23.55;;;15.10;;
56401;SDS011;42299;35.160;26.100;2023-05-10T04:52:30;27.52;;;15.00;;
56401;SDS011;42299;35.160;26.100;2023-05-10T04:53:55;24.63;;;14.50;;
56401;SDS011;42299;35.160;26.100;2023-05-10T04:55:16;26.00;;;13.27;;
56401;SDS011;42299;35.160;26.100;2023-05-10T04:56:38;26.35;;;14.40;;
56401;SDS011;42299;35.160;26.100;2023-05-10T04:58:01;22.17;;;13.82;;
56401;SDS011;42299;35.160;26.100;2023-05-10T04:59:23;23.83;;;13.48;;
56401;SDS011;42299;35.160;26.100;2023-05-10T05:00:46;27.50;;;14.80;;
56401;SDS011;42299;35.160;26.100;2023-05-10T05:02:08;26.85;;;13.05;;
56401;SDS011;42299;35.160;26.100;2023-05-10T05:03:30;23.17;;;13.07;;
56401;SDS011;42299;35.160;26.100;2023-05-10T05:04:53;24.13;;;12.63;;
56401;SDS011;42299;35.160;26.100;2023-05-10T05:06:18;26.38;;;12.93;;
56401;SDS011;42299;35.160;26.100;2023-05-10T05:07:41;24.38;;;12.90;;
56401;SDS011;42299;35.160;26.100;2023-05-10T05:09:05;26.27;;;13.43;;
56401;SDS011;42299;35.160;26.100;2023-05-10T05:10:26;26.38;;;12.68;;
56401;SDS011;42299;35.160;26.100;2023-05-10T05:11:48;26.55;;;11.68;;
56401;SDS011;42299;35.160;26.100;2023-05-10T05:13:12;22.98;;;11.02;;
56401;SDS011;42299;35.160;26.100;2023-05-10T05:14:33;18.00;;;10.32;;
56401;SDS011;42299;35.160;26.100;2023-05-10T05:15:55;20.77;;;10.77;;
56401;SDS011;42299;35.160;26.100;2023-05-10T05:17:17;20.45;;;10.80;;
56401;SDS011;42299;35.160;26.100;2023-05-10T05:18:39;24.05;;;11.07;;
56401;SDS011;42299;35.160;26.100;2023-05-10T05:20:00;24.45;;;9.65;;
56401;SDS011;42299;35.160;26.100;2023-05-10T05:21:23;17.80;;;9.73;;
56401;SDS011;42299;35.160;26.100;2023-05-10T05:22:47;22.15;;;10.13;;
56401;SDS011;42299;35.160;26.100;2023-05-10T05:24:11;21.40;;;9.18;;
56401;SDS011;42299;35.160;26.100;2023-05-10T05:25:34;21.83;;;8.52;;
56401;SDS011;42299;35.160;26.100;2023-05-10T05:26:57;21.63;;;8.77;;
56401;SDS011;42299;35.160;26.100;2023-05-10T05:28:19;17.92;;;7.95;;
56401;SDS011;42299;35.160;26.100;2023-05-10T05:29:43;23.38;;;7.43;;
56401;SDS011;42299;35.160;26.100;2023-05-10T05:31:06;19.27;;;7.35;;
56401;SDS011;42299;35.160;26.100;2023-05-10T05:32:27;21.17;;;8.68;;
56401;SDS011;42299;35.160;26.100;2023-05-10T05:33:50;20.25;;;8.13;;
56401;SDS011;42299;35.160;26.100;2023-05-10T05:35:12;17.00;;;7.88;;
56401;SDS011;42299;35.160;26.100;2023-05-10T05:36:35;20.13;;;8.13;;
56401;SDS011;42299;35.160;26.100;2023-05-10T05:37:59;15.43;;;7.72;;
56401;SDS011;42299;35.160;26.100;2023-05-10T05:39:23;20.25;;;8.00;;
56401;SDS011;42299;35.160;26.100;2023-05-10T05:40:46;23.15;;;8.38;;
56401;SDS011;42299;35.160;26.100;2023-05-10T05:42:07;18.85;;;7.53;;
56401;SDS011;42299;35.160;26.100;2023-05-10T05:43:30;17.30;;;7.57;;
56401;SDS011;42299;35.160;26.100;2023-05-10T05:44:52;20.77;;;8.75;;
56401;SDS011;42299;35.160;26.100;2023-05-10T05:46:15;15.27;;;7.40;;
56401;SDS011;42299;35.160;26.100;2023-05-10T05:47:37;21.65;;;8.23;;
56401;SDS011;42299;35.160;26.100;2023-05-10T05:48:58;22.23;;;8.45;;
56401;SDS011;42299;35.160;26.100;2023-05-10T05:50:21;22.38;;;8.77;;
56401;SDS011;42299;35.160;26.100;2023-05-10T05:51:43;19.25;;;8.65;;
56401;SDS011;42299;35.160;26.100;2023-05-10T05:53:06;18.48;;;8.68;;
56401;SDS011;42299;35.160;26.100;2023-05-10T05:54:29;22.35;;;8.93;;
56401;SDS011;42299;35.160;26.100;2023-05-10T05:55:52;20.77;;;8.98;;
56401;SDS011;42299;35.160;26.100;2023-05-10T05:57:15;20.15;;;8.80;;
56401;SDS011;42299;35.160;26.100;2023-05-10T05:58:38;16.48;;;8.45;;
56401;SDS011;42299;35.160;26.100;2023-05-10T06:00:00;17.85;;;7.97;;
56401;SDS011;42299;35.160;26.100;2023-05-10T06:01:33;19.33;;;8.68;;
56401;SDS011;42299;35.160;26.100;2023-05-10T06:02:55;19.25;;;8.70;;
56401;SDS011;42299;35.160;26.100;2023-05-10T06:04:17;17.10;;;8.60;;
56401;SDS011;42299;35.160;26.100;2023-05-10T06:05:40;19.80;;;8.60;;
56401;SDS011;42299;35.160;26.100;2023-05-10T06:07:02;22.70;;;8.77;;
56401;SDS011;42299;35.160;26.100;2023-05-10T06:08:25;19.45;;;8.00;;
56401;SDS011;42299;35.160;26.100;2023-05-10T06:09:49;17.33;;;7.40;;
56401;SDS011;42299;35.160;26.100;2023-05-10T06:11:11;18.88;;;7.78;;
56401;SDS011;42299;35.160;26.100;2023-05-10T06:12:34;17.60;;;8.38;;
56401;SDS011;42299;35.160;26.100;2023-05-10T06:13:57;18.08;;;7.25;;
56401;SDS011;42299;35.160;26.100;2023-05-10T06:15:20;17.70;;;7.15;;
56401;SDS011;42299;35.160;26.100;2023-05-10T06:16:43;21.17;;;7.43;;
56401;SDS011;42299;35.160;26.100;2023-05-10T06:18:05;14.75;;;6.63;;
56401;SDS011;42299;35.160;26.100;2023-05-10T06:19:28;14.00;;;6.55;;
56401;SDS011;42299;35.160;26.100;2023-05-10T06:20:50;16.85;;;6.63;;
56401;SDS011;42299;35.160;26.100;2023-05-10T06:22:12;16.65;;;7.25;;
56401;SDS011;42299;35.160;26.100;2023-05-10T06:23:35;15.90;;;7.53;;
56401;SDS011;42299;35.160;26.100;2023-05-10T06:24:59;16.13;;;8.00;;
56401;SDS011;42299;35.160;26.100;2023-05-10T06:26:21;15.85;;;7.65;;
56401;SDS011;42299;35.160;26.100;2023-05-10T06:27:43;13.68;;;7.70;;
56401;SDS011;42299;35.160;26.100;2023-05-10T06:29:06;16.02;;;6.60;;
56401;SDS011;42299;35.160;26.100;2023-05-10T06:30:28;15.70;;;7.40;;
56401;SDS011;42299;35.160;26.100;2023-05-10T06:31:51;16.10;;;8.23;;
56401;SDS011;42299;35.160;26.100;2023-05-10T06:33:13;15.70;;;7.07;;
56401;SDS011;42299;35.160;26.100;2023-05-10T06:34:36;15.95;;;7.75;;
56401;SDS011;42299;35.160;26.100;2023-05-10T06:35:58;14.77;;;7.00;;
56401;SDS011;42299;35.160;26.100;2023-05-10T06:37:21;17.95;;;8.05;;
56401;SDS011;42299;35.160;26.100;2023-05-10T06:38:43;12.82;;;6.55;;
56401;SDS011;42299;35.160;26.100;2023-05-10T06:40:08;16.55;;;6.75;;
56401;SDS011;42299;35.160;26.100;2023-05-10T06:41:31;12.85;;;7.10;;
56401;SDS011;42299;35.160;26.100;2023-05-10T06:42:53;15.32;;;7.15;;
56401;SDS011;42299;35.160;26.100;2023-05-10T06:44:16;16.33;;;6.82;;
56401;SDS011;42299;35.160;26.100;2023-05-10T06:45:38;17.40;;;7.28;;
56401;SDS011;42299;35.160;26.100;2023-05-10T06:47:01;14.57;;;7.78;;
56401;SDS011;42299;35.160;26.100;2023-05-10T06:48:23;16.23;;;6.85;;
56401;SDS011;42299;35.160;26.100;2023-05-10T06:49:46;14.43;;;7.70;;
56401;SDS011;42299;35.160;26.100;2023-05-10T06:51:08;15.88;;;7.25;;
56401;SDS011;42299;35.160;26.100;2023-05-10T06:52:30;16.67;;;7.88;;
56401;SDS011;42299;35.160;26.100;2023-05-10T06:53:53;13.52;;;7.85;;
56401;SDS011;42299;35.160;26.100;2023-05-10T06:55:17;16.67;;;8.27;;
56401;SDS011;42299;35.160;26.100;2023-05-10T06:56:39;17.08;;;7.55;;
56401;SDS011;42299;35.160;26.100;2023-05-10T06:58:01;18.48;;;7.82;;
56401;SDS011;42299;35.160;26.100;2023-05-10T06:59:24;17.73;;;7.70;;
56401;SDS011;42299;35.160;26.100;2023-05-10T07:00:46;14.93;;;7.40;;
56401;SDS011;42299;35.160;26.100;2023-05-10T07:02:07;15.27;;;7.45;;
56401;SDS011;42299;35.160;26.100;2023-05-10T07:03:30;14.88;;;7.20;;
56401;SDS011;42299;35.160;26.100;2023-05-10T07:04:53;15.15;;;6.90;;
56401;SDS011;42299;35.160;26.100;2023-05-10T07:06:15;15.88;;;6.53;;
56401;SDS011;42299;35.160;26.100;2023-05-10T07:07:38;14.00;;;6.47;;
56401;SDS011;42299;35.160;26.100;2023-05-10T07:09:00;16.65;;;6.60;;
56401;SDS011;42299;35.160;26.100;2023-05-10T07:10:24;15.70;;;6.97;;
56401;SDS011;42299;35.160;26.100;2023-05-10T07:11:46;15.73;;;6.95;;
56401;SDS011;42299;35.160;26.100;2023-05-10T07:13:09;14.80;;;6.85;;
56401;SDS011;42299;35.160;26.100;2023-05-10T07:14:31;16.85;;;7.63;;
56401;SDS011;42299;35.160;26.100;2023-05-10T07:15:53;15.73;;;7.47;;
56401;SDS011;42299;35.160;26.100;2023-05-10T07:17:16;13.52;;;7.10;;
56401;SDS011;42299;35.160;26.100;2023-05-10T07:18:38;17.00;;;8.05;;
56401;SDS011;42299;35.160;26.100;2023-05-10T07:20:00;17.58;;;8.45;;
56401;SDS011;42299;35.160;26.100;2023-05-10T07:21:23;19.85;;;8.13;;
56401;SDS011;42299;35.160;26.100;2023-05-10T07:22:48;15.50;;;7.85;;
56401;SDS011;42299;35.160;26.100;2023-05-10T07:24:11;21.10;;;8.20;;
56401;SDS011;42299;35.160;26.100;2023-05-10T07:25:35;21.42;;;7.90;;
56401;SDS011;42299;35.160;26.100;2023-05-10T07:26:57;18.55;;;7.90;;
56401;SDS011;42299;35.160;26.100;2023-05-10T07:28:20;17.15;;;8.23;;
56401;SDS011;42299;35.160;26.100;2023-05-10T07:29:44;16.25;;;7.55;;
56401;SDS011;42299;35.160;26.100;2023-05-10T07:31:06;15.80;;;8.05;;
56401;SDS011;42299;35.160;26.100;2023-05-10T07:32:29;22.08;;;9.40;;
56401;SDS011;42299;35.160;26.100;2023-05-10T07:33:50;16.58;;;8.38;;
56401;SDS011;42299;35.160;26.100;2023-05-10T07:35:13;18.27;;;8.57;;
56401;SDS011;42299;35.160;26.100;2023-05-10T07:36:36;19.65;;;9.32;;
56401;SDS011;42299;35.160;26.100;2023-05-10T07:37:58;16.13;;;8.85;;
56401;SDS011;42299;35.160;26.100;2023-05-10T07:39:20;16.85;;;8.50;;
56401;SDS011;42299;35.160;26.100;2023-05-10T07:40:44;17.80;;;8.45;;
56401;SDS011;42299;35.160;26.100;2023-05-10T07:42:06;18.83;;;8.48;;
56401;SDS011;42299;35.160;26.100;2023-05-10T07:43:28;19.45;;;8.00;;
56401;SDS011;42299;35.160;26.100;2023-05-10T07:44:51;15.40;;;7.28;;
56401;SDS011;42299;35.160;26.100;2023-05-10T07:46:13;17.77;;;7.35;;
56401;SDS011;42299;35.160;26.100;2023-05-10T07:47:35;16.15;;;8.10;;
56401;SDS011;42299;35.160;26.100;2023-05-10T07:48:58;14.52;;;7.03;;
56401;SDS011;42299;35.160;26.100;2023-05-10T07:50:20;13.70;;;7.07;;
56401;SDS011;42299;35.160;26.100;2023-05-10T07:51:42;15.13;;;7.15;;
56401;SDS011;42299;35.160;26.100;2023-05-10T07:53:05;14.07;;;7.18;;
56401;SDS011;42299;35.160;26.100;2023-05-10T07:54:27;14.02;;;7.03;;
56401;SDS011;42299;35.160;26.100;2023-05-10T07:55:52;10.85;;;5.90;;
56401;SDS011;42299;35.160;26.100;2023-05-10T07:57:18;12.23;;;6.38;;
56401;SDS011;42299;35.160;26.100;2023-05-10T07:58:41;17.08;;;7.60;;
56401;SDS011;42299;35.160;26.100;2023-05-10T08:00:04;13.85;;;6.15;;
56401;SDS011;42299;35.160;26.100;2023-05-10T08:01:33;14.38;;;6.60;;
56401;SDS011;42299;35.160;26.100;2023-05-10T08:02:56;13.90;;;6.53;;
56401;SDS011;42299;35.160;26.100;2023-05-10T08:04:18;13.50;;;6.65;;
56401;SDS011;42299;35.160;26.100;2023-05-10T08:05:41;15.95;;;6.53;;
56401;SDS011;42299;35.160;26.100;2023-05-10T08:07:03;12.57;;;6.43;;
56401;SDS011;42299;35.160;26.100;2023-05-10T08:08:25;16.83;;;6.47;;
56401;SDS011;42299;35.160;26.100;2023-05-10T08:09:48;14.20;;;5.80;;
56401;SDS011;42299;35.160;26.100;2023-05-10T08:11:12;19.27;;;6.72;;